Time;durP1;ratioP1;P1;durP2;ratioP2;P2;SDS_P1;SDS_P2;PMS_P1;PMS_P2;Temp;Humidity;BMP_temperature;BMP_pressure;BME280_temperature;BME280_humidity;BME280_pressure;Samples;Min_cycle;Max_cycle;Signal;HPM_P1;HPM_P2
2023/04/18 00:01:00;;;;;;;17.80;11.63;;;;;;;12.93;73.70;94690.09;5012896;28;20064;-80
2023/04/18 00:03:28;;;;;;;19.40;12.75;;;;;;;12.97;73.51;94701.72;5004687;28;20037;-80
2023/04/18 00:05:54;;;;;;;20.35;11.52;;;;;;;12.81;73.83;94671.19;5004259;28;20406;-80
2023/04/18 00:08:19;;;;;;;17.30;12.50;;;;;;;12.77;74.35;94663.81;5024752;28;20068;-81
2023/04/18 00:10:45;;;;;;;20.63;13.15;;;;;;;12.83;74.38;94684.97;5014899;28;20072;-80
2023/04/18 00:13:10;;;;;;;22.10;13.50;;;;;;;12.79;74.70;94665.38;5014168;28;20531;-80
2023/04/18 00:15:36;;;;;;;23.83;14.05;;;;;;;12.42;74.94;94610.59;5014612;28;20033;-81
2023/04/18 00:18:02;;;;;;;22.88;13.38;;;;;;;12.66;75.57;94670.41;5014673;28;20037;-81
2023/04/18 00:20:28;;;;;;;25.90;14.82;;;;;;;12.87;75.73;94694.75;5014547;28;20138;-81
2023/04/18 00:22:54;;;;;;;25.85;14.93;;;;;;;12.29;76.11;94612.16;5032035;28;20114;-81
2023/04/18 00:25:20;;;;;;;22.55;14.43;;;;;;;12.79;76.84;94700.75;5014530;28;20037;-80
2023/04/18 00:27:45;;;;;;;22.05;14.38;;;;;;;12.77;76.44;94706.38;5014730;28;20036;-81
2023/04/18 00:30:11;;;;;;;25.40;14.85;;;;;;;12.25;77.12;94630.59;5014341;28;20033;-80
2023/04/18 00:32:37;;;;;;;33.78;17.27;;;;;;;12.61;77.79;94670.53;5014022;28;20028;-81
2023/04/18 00:35:04;;;;;;;26.83;15.48;;;;;;;12.62;77.71;94679.28;5014241;28;20037;-81
2023/04/18 00:37:29;;;;;;;26.40;16.23;;;;;;;12.17;77.99;94612.66;5032093;28;20037;-81
2023/04/18 00:39:55;;;;;;;25.35;15.75;;;;;;;12.63;78.16;94688.84;5024007;28;20451;-81
2023/04/18 00:42:20;;;;;;;22.02;14.05;;;;;;;12.34;78.28;94655.41;4996617;28;20033;-81
2023/04/18 00:44:49;;;;;;;22.48;14.13;;;;;;;12.52;78.71;94685.59;5002943;28;20117;-81
2023/04/18 00:47:18;;;;;;;33.08;16.77;;;;;;;12.48;78.97;94686.50;4994435;28;20465;-81
2023/04/18 00:49:44;;;;;;;29.67;15.57;;;;;;;11.72;80.67;94581.63;5016012;28;20606;-81
2023/04/18 00:52:11;;;;;;;39.45;17.10;;;;;;;12.42;81.54;94685.81;4998913;28;20099;-81
2023/04/18 00:54:38;;;;;;;31.70;15.90;;;;;;;12.04;81.87;94628.63;5032414;28;20029;-81
2023/04/18 00:57:04;;;;;;;25.50;15.90;;;;;;;12.26;82.46;94660.63;5017744;28;20034;-81
2023/04/18 00:59:31;;;;;;;24.23;14.20;;;;;;;12.35;82.76;94682.78;5033877;28;20414;-81
2023/04/18 01:01:57;;;;;;;28.00;13.70;;;;;;;12.28;82.33;94674.41;5017349;28;20127;-80
2023/04/18 01:04:23;;;;;;;21.67;12.65;;;;;;;11.97;82.08;94635.13;5017304;28;20072;-81
2023/04/18 01:06:48;;;;;;;25.77;13.15;;;;;;;11.90;83.14;94626.72;5035874;28;20033;-80
2023/04/18 01:09:14;;;;;;;30.27;14.57;;;;;;;12.17;83.65;94678.34;5017764;28;20045;-80
2023/04/18 01:11:40;;;;;;;26.42;12.95;;;;;;;12.06;83.56;94656.47;5010848;28;20037;-80
2023/04/18 01:14:07;;;;;;;17.13;10.65;;;;;;;12.13;83.28;94667.50;5005430;28;20091;-81
2023/04/18 01:16:32;;;;;;;20.13;11.25;;;;;;;11.44;83.16;94580.84;5034928;28;20044;-80
2023/04/18 01:19:00;;;;;;;21.67;10.18;;;;;;;11.94;82.87;94649.00;5017384;28;20037;-80
2023/04/18 01:21:29;;;;;;;15.10;10.07;;;;;;;11.54;83.50;94589.38;5017203;28;20107;-80
2023/04/18 01:24:00;;;;;;;15.25;10.15;;;;;;;12.04;83.86;94669.28;5017039;28;20045;-81
2023/04/18 01:26:26;;;;;;;19.58;9.73;;;;;;;12.01;83.91;94672.50;5017421;28;20064;-80
2023/04/18 01:28:52;;;;;;;16.13;10.00;;;;;;;11.74;83.54;94627.31;5034981;28;20114;-80
2023/04/18 01:31:17;;;;;;;15.15;10.45;;;;;;;11.25;83.78;94564.94;5017134;28;20034;-81
2023/04/18 01:33:42;;;;;;;15.70;10.50;;;;;;;11.47;84.26;94588.97;5016864;28;20163;-81
2023/04/18 01:36:08;;;;;;;17.52;10.95;;;;;;;11.88;84.20;94657.34;5035071;28;20163;-81
2023/04/18 01:38:33;;;;;;;16.55;9.63;;;;;;;11.69;84.09;94617.53;5016209;28;20033;-81
2023/04/18 01:40:59;;;;;;;14.07;9.77;;;;;;;12.00;84.28;94665.63;5016595;28;20428;-81
2023/04/18 01:43:24;;;;;;;17.08;11.10;;;;;;;11.58;84.32;94608.97;5016367;28;20036;-81
2023/04/18 01:45:50;;;;;;;15.90;10.27;;;;;;;11.87;84.80;94653.13;5027943;28;20084;-81
2023/04/18 01:48:17;;;;;;;15.27;10.60;;;;;;;11.57;84.44;94610.06;4997232;28;20113;-81
2023/04/18 01:50:42;;;;;;;14.82;10.75;;;;;;;11.99;84.21;94656.06;5005659;28;20033;-81
2023/04/18 01:53:07;;;;;;;15.00;10.80;;;;;;;11.99;83.83;94669.34;5017422;28;20056;-81
2023/04/18 01:55:33;;;;;;;14.88;11.05;;;;;;;11.87;83.44;94656.56;5035188;28;20063;-81
2023/04/18 01:57:58;;;;;;;21.88;12.10;;;;;;;11.70;83.20;94608.50;5016599;28;20033;-81
2023/04/18 02:00:24;;;;;;;18.10;13.00;;;;;;;11.61;83.58;94600.41;5018326;28;20041;-81
2023/04/18 02:02:49;;;;;;;23.55;16.25;;;;;;;11.71;83.93;94609.28;5037311;28;20397;-81
2023/04/18 02:05:15;;;;;;;23.58;15.27;;;;;;;12.02;84.27;94660.03;5018411;28;20037;-81
2023/04/18 02:07:41;;;;;;;23.90;17.00;;;;;;;11.75;84.29;94616.38;5017482;28;20080;-81
2023/04/18 02:10:08;;;;;;;23.98;16.92;;;;;;;11.59;83.24;94593.84;5018108;28;20543;-81
2023/04/18 02:12:33;;;;;;;25.63;17.83;;;;;;;11.78;83.24;94621.13;5017724;28;20044;-81
2023/04/18 02:14:59;;;;;;;32.30;18.08;;;;;;;11.13;83.07;94522.19;5017908;28;20089;-81
2023/04/18 02:17:24;;;;;;;31.65;18.33;;;;;;;11.74;83.18;94612.19;5017174;28;20037;-81
2023/04/18 02:19:50;;;;;;;30.05;19.67;;;;;;;11.41;82.70;94578.75;5035707;28;20547;-81
2023/04/18 02:22:16;;;;;;;28.13;18.88;;;;;;;12.01;83.15;94669.06;5035578;28;20049;-81
2023/04/18 02:24:42;;;;;;;29.40;19.15;;;;;;;12.03;82.98;94673.03;5017282;28;20216;-81
2023/04/18 02:27:07;;;;;;;30.60;19.30;;;;;;;11.99;83.25;94669.34;5035440;28;20029;-81
2023/04/18 02:29:33;;;;;;;29.63;19.33;;;;;;;12.03;82.93;94670.34;5035494;28;20037;-81
2023/04/18 02:31:58;;;;;;;29.40;18.00;;;;;;;11.45;82.75;94587.69;5017071;28;20033;-81
2023/04/18 02:34:24;;;;;;;28.35;19.67;;;;;;;11.53;83.17;94613.56;5017393;28;20041;-81
2023/04/18 02:36:50;;;;;;;23.70;17.08;;;;;;;11.63;82.11;94660.41;5035827;28;20092;-81
2023/04/18 02:39:15;;;;;;;27.05;16.00;;;;;;;11.58;82.74;94627.56;5035537;28;20435;-81
2023/04/18 02:41:40;;;;;;;27.33;18.75;;;;;;;11.68;82.78;94650.50;5017356;28;20462;-81
2023/04/18 02:44:07;;;;;;;27.80;17.88;;;;;;;11.91;82.45;94678.00;5035574;28;20095;-81
2023/04/18 02:46:32;;;;;;;25.50;18.30;;;;;;;11.76;82.66;94660.47;5018861;28;20065;-81
2023/04/18 02:48:58;;;;;;;26.77;18.13;;;;;;;11.95;82.87;94669.16;4997906;28;20037;-81
2023/04/18 02:51:25;;;;;;;27.80;18.58;;;;;;;11.96;83.52;94670.75;4998058;28;20068;-81
2023/04/18 02:53:53;;;;;;;30.05;20.02;;;;;;;11.89;83.43;94667.69;4998866;28;20161;-81
2023/04/18 02:56:20;;;;;;;35.30;20.23;;;;;;;11.60;83.04;94609.47;5002476;28;20029;-81
2023/04/18 02:58:46;;;;;;;33.08;22.13;;;;;;;11.32;83.22;94553.94;5035349;28;20079;-81
2023/04/18 03:01:12;;;;;;;36.00;22.05;;;;;;;11.92;83.47;94648.50;5017091;28;20041;-81
2023/04/18 03:03:37;;;;;;;33.30;21.40;;;;;;;11.49;83.08;94576.22;5008858;28;20119;-81
2023/04/18 03:06:03;;;;;;;34.25;21.67;;;;;;;11.87;82.77;94643.28;4997145;28;20044;-81
2023/04/18 03:08:28;;;;;;;28.73;20.42;;;;;;;11.54;82.79;94601.88;5019262;28;20046;-81
2023/04/18 03:10:54;;;;;;;37.15;23.35;;;;;;;12.09;82.52;94682.47;4996909;28;20030;-81
2023/04/18 03:13:19;;;;;;;29.75;20.67;;;;;;;11.98;82.59;94667.78;5009666;28;20039;-81
2023/04/18 03:15:45;;;;;;;30.70;21.45;;;;;;;11.60;82.09;94638.66;5033845;28;20041;-81
2023/04/18 03:18:11;;;;;;;29.00;19.67;;;;;;;11.25;82.52;94580.88;5015605;28;20117;-81
2023/04/18 03:20:36;;;;;;;24.75;18.13;;;;;;;11.99;82.67;94696.72;5015720;28;20111;-81
2023/04/18 03:23:02;;;;;;;27.50;18.65;;;;;;;11.85;82.14;94687.94;5016147;28;20069;-81
2023/04/18 03:25:27;;;;;;;30.35;18.65;;;;;;;11.33;82.67;94596.13;4997400;28;20112;-81
2023/04/18 03:27:53;;;;;;;27.45;19.48;;;;;;;11.53;83.13;94627.63;5013980;28;20045;-79
2023/04/18 03:30:19;;;;;;;28.70;19.27;;;;;;;11.94;83.25;94704.78;4996113;28;20064;-81
2023/04/18 03:32:45;;;;;;;29.48;19.00;;;;;;;11.92;83.22;94711.47;5013745;28;20034;-81
2023/04/18 03:35:10;;;;;;;28.83;19.38;;;;;;;11.64;82.98;94656.69;5000475;28;20439;-81
2023/04/18 03:37:36;;;;;;;28.38;17.95;;;;;;;11.78;82.83;94684.88;5014985;28;20091;-81
2023/04/18 03:40:04;;;;;;;26.92;17.27;;;;;;;11.92;83.20;94708.81;5032716;28;20512;-81
2023/04/18 03:42:31;;;;;;;25.83;16.55;;;;;;;11.99;83.10;94714.53;5014886;28;20401;-81
2023/04/18 03:44:56;;;;;;;21.42;16.05;;;;;;;11.95;82.88;94710.91;5032616;28;20041;-81
2023/04/18 03:47:21;;;;;;;21.40;15.73;;;;;;;11.89;83.02;94701.44;5032288;28;20041;-81
2023/04/18 03:49:47;;;;;;;23.52;15.77;;;;;;;11.97;83.10;94704.22;5032017;28;20186;-81
2023/04/18 03:52:12;;;;;;;24.77;17.25;;;;;;;11.98;83.12;94708.44;5013481;28;20048;-83
2023/04/18 03:54:38;;;;;;;21.95;16.10;;;;;;;11.49;83.73;94647.13;5030755;28;20541;-83
2023/04/18 03:57:03;;;;;;;22.50;16.27;;;;;;;11.94;83.53;94706.66;5030342;28;20478;-83
2023/04/18 03:59:29;;;;;;;26.65;16.27;;;;;;;11.93;83.73;94705.88;5030356;28;20037;-83
2023/04/18 04:01:54;;;;;;;22.83;15.73;;;;;;;11.74;83.71;94683.09;5013234;28;20052;-84
2023/04/18 04:04:20;;;;;;;22.17;16.58;;;;;;;11.62;83.36;94656.97;5028786;28;20397;-83
2023/04/18 04:06:46;;;;;;;21.15;16.17;;;;;;;11.81;83.53;94688.84;4992875;28;20395;-84
2023/04/18 04:09:11;;;;;;;26.75;17.33;;;;;;;11.85;83.81;94703.88;5013082;28;20120;-83
2023/04/18 04:11:37;;;;;;;21.55;16.60;;;;;;;11.42;83.34;94634.22;5004846;28;20481;-83
2023/04/18 04:14:02;;;;;;;25.90;16.95;;;;;;;11.43;83.54;94643.75;5022916;28;20038;-84
2023/04/18 04:16:28;;;;;;;22.98;16.65;;;;;;;11.28;83.53;94612.16;5022462;28;20037;-83
2023/04/18 04:18:53;;;;;;;23.63;16.92;;;;;;;11.38;84.11;94641.19;5002148;28;20030;-84
2023/04/18 04:21:19;;;;;;;23.60;17.25;;;;;;;11.08;83.89;94580.63;5020212;28;20037;-84
2023/04/18 04:23:45;;;;;;;24.55;17.70;;;;;;;11.86;83.40;94705.47;5007632;28;20033;-84
2023/04/18 04:26:11;;;;;;;24.38;16.38;;;;;;;11.47;83.82;94646.63;4998694;28;20065;-84
2023/04/18 04:28:37;;;;;;;24.17;18.13;;;;;;;11.87;83.90;94714.22;4999642;28;20033;-84
2023/04/18 04:31:05;;;;;;;25.10;16.70;;;;;;;11.50;83.60;94652.13;5001149;28;20432;-82
2023/04/18 04:33:32;;;;;;;26.30;18.02;;;;;;;11.91;83.44;94710.69;4993098;28;20392;-84
2023/04/18 04:36:00;;;;;;;24.30;17.95;;;;;;;11.79;83.40;94686.47;4999155;28;20048;-84
2023/04/18 04:38:26;;;;;;;26.77;17.90;;;;;;;11.67;83.62;94672.84;5001622;28;20033;-85
2023/04/18 04:40:51;;;;;;;23.02;17.50;;;;;;;11.90;83.55;94721.63;4999633;28;20048;-85
2023/04/18 04:43:19;;;;;;;25.27;19.13;;;;;;;11.82;83.58;94698.38;5012620;28;20025;-85
2023/04/18 04:45:48;;;;;;;24.88;17.80;;;;;;;11.91;83.19;94713.34;4998729;28;20068;-85
2023/04/18 04:48:14;;;;;;;25.83;18.95;;;;;;;11.73;83.31;94684.94;5002260;28;20128;-85
2023/04/18 04:50:40;;;;;;;27.35;19.35;;;;;;;12.06;83.80;94738.84;4996233;28;20172;-82
2023/04/18 04:53:06;;;;;;;28.13;19.67;;;;;;;12.02;83.78;94726.47;4997483;28;20419;-84
2023/04/18 04:55:32;;;;;;;25.38;18.90;;;;;;;12.13;83.32;94735.84;4996005;28;20036;-83
2023/04/18 04:57:58;;;;;;;27.15;18.40;;;;;;;11.86;83.20;94702.81;4996421;28;20029;-83
2023/04/18 05:00:23;;;;;;;27.50;19.02;;;;;;;12.03;82.90;94728.81;5004537;28;20069;-84
2023/04/18 05:02:52;;;;;;;27.05;19.52;;;;;;;11.22;82.90;94592.06;5002703;28;20061;-85
2023/04/18 05:05:17;;;;;;;27.63;18.20;;;;;;;11.85;82.63;94698.56;5002129;28;20505;-84
2023/04/18 05:07:43;;;;;;;30.25;19.95;;;;;;;11.82;82.68;94693.84;5001716;28;20740;-84
2023/04/18 05:10:09;;;;;;;28.48;19.58;;;;;;;12.02;82.90;94713.16;4993009;28;20136;-83
2023/04/18 05:12:34;;;;;;;27.60;20.00;;;;;;;11.91;82.32;94696.59;4993726;28;20116;-85
2023/04/18 05:15:00;;;;;;;26.17;18.85;;;;;;;11.87;82.28;94696.41;4994858;28;20041;-86
2023/04/18 05:17:25;;;;;;;27.48;19.95;;;;;;;11.47;81.98;94641.31;4999476;28;20384;-87
2023/04/18 05:19:51;;;;;;;28.08;20.33;;;;;;;11.63;81.78;94655.91;5000914;28;20081;-86
2023/04/18 05:22:16;;;;;;;31.75;20.83;;;;;;;12.21;82.10;94737.78;4999057;28;20104;-85
2023/04/18 05:24:42;;;;;;;27.85;19.45;;;;;;;11.91;81.91;94680.66;5017835;28;20040;-86
2023/04/18 05:27:07;;;;;;;27.80;20.15;;;;;;;12.20;81.97;94733.59;5001485;28;20044;-86
2023/04/18 05:29:33;;;;;;;31.77;22.02;;;;;;;11.88;81.90;94684.72;5003689;28;20044;-85
2023/04/18 05:31:58;;;;;;;32.15;21.95;;;;;;;11.58;81.77;94648.03;5018560;28;20515;-85
2023/04/18 05:34:24;;;;;;;35.35;22.30;;;;;;;12.06;82.31;94712.28;5016531;28;20042;-85
2023/04/18 05:36:49;;;;;;;34.65;21.95;;;;;;;12.42;82.69;94757.63;5000344;28;20063;-84
2023/04/18 05:39:15;;;;;;;30.52;21.75;;;;;;;12.12;82.47;94711.13;4999804;28;20033;-83
2023/04/18 05:41:41;;;;;;;31.15;21.50;;;;;;;11.44;82.72;94586.16;5002778;28;20037;-85
2023/04/18 05:44:07;;;;;;;36.33;22.75;;;;;;;12.22;82.60;94696.84;5005020;28;20025;-84
2023/04/18 05:46:32;;;;;;;34.03;21.88;;;;;;;12.10;82.55;94697.34;5026820;28;20166;-84
2023/04/18 05:48:59;;;;;;;32.88;21.75;;;;;;;12.02;82.21;94668.00;5010320;28;20029;-85
2023/04/18 05:51:25;;;;;;;28.13;20.73;;;;;;;12.51;81.86;94741.78;5017472;28;20559;-85
2023/04/18 05:53:51;;;;;;;33.22;21.40;;;;;;;12.64;81.76;94772.91;5025340;28;20037;-87
2023/04/18 05:56:16;;;;;;;35.40;21.60;;;;;;;12.59;81.75;94767.66;5015608;28;20045;-86
2023/04/18 05:58:43;;;;;;;37.20;23.25;;;;;;;12.67;81.46;94770.44;5021142;28;20033;-86
2023/04/18 06:01:09;;;;;;;34.60;21.98;;;;;;;12.66;82.17;94768.84;5004348;28;20037;-87
2023/04/18 06:03:35;;;;;;;31.50;21.23;;;;;;;12.32;81.60;94713.41;5006849;28;20222;-86
2023/04/18 06:06:00;;;;;;;29.00;19.98;;;;;;;12.28;81.27;94693.03;5021560;28;20037;-84
2023/04/18 06:08:25;;;;;;;29.35;21.13;;;;;;;12.31;81.13;94671.16;4996860;28;20037;-83
2023/04/18 06:10:51;;;;;;;36.33;20.48;;;;;;;12.74;80.93;94732.78;5012837;28;20045;-85
2023/04/18 06:13:16;;;;;;;31.45;21.30;;;;;;;12.73;81.08;94739.22;4994003;28;20034;-84
2023/04/18 06:15:42;;;;;;;29.52;20.00;;;;;;;12.87;80.81;94755.16;5018608;28;20236;-85
2023/04/18 06:18:07;;;;;;;33.50;22.63;;;;;;;12.60;80.62;94713.38;4984908;28;20033;-86
2023/04/18 06:20:33;;;;;;;30.48;19.88;;;;;;;12.88;81.61;94754.88;5016524;28;20041;-85
2023/04/18 06:23:14;;;;;;;30.15;19.40;;;;;;;12.41;80.79;94672.81;5001106;28;20140;-85
2023/04/18 06:25:43;;;;;;;27.83;18.23;;;;;;;12.64;79.51;94714.38;4999959;28;20132;-84
2023/04/18 06:28:08;;;;;;;28.17;19.15;;;;;;;12.42;78.48;94671.75;4996509;28;20538;-85
2023/04/18 06:30:34;;;;;;;29.25;19.15;;;;;;;11.83;79.82;94589.13;5000138;28;20025;-83
2023/04/18 06:33:00;;;;;;;28.63;19.52;;;;;;;10.85;79.61;94449.69;5015275;28;21318;-84
2023/04/18 06:35:27;;;;;;;29.67;20.58;;;;;;;11.39;79.14;94509.22;5000222;28;20026;-85
2023/04/18 06:37:52;;;;;;;36.42;22.00;;;;;;;13.16;80.00;94770.81;4985808;28;20049;-84
2023/04/18 06:40:18;;;;;;;30.25;21.13;;;;;;;12.67;80.05;94679.97;5003141;28;20090;-86
2023/04/18 06:42:44;;;;;;;31.48;20.65;;;;;;;13.05;79.73;94731.06;5000408;28;20040;-87
2023/04/18 06:45:10;;;;;;;37.13;21.52;;;;;;;11.53;79.01;94494.06;5000763;28;20037;-86
2023/04/18 06:47:37;;;;;;;31.00;19.48;;;;;;;12.90;78.61;94710.09;4987650;28;20026;-88
2023/04/18 06:50:03;;;;;;;34.15;19.80;;;;;;;12.88;78.28;94684.88;5014856;28;20041;-87
2023/04/18 06:52:31;;;;;;;28.67;19.90;;;;;;;13.40;77.91;94769.47;5005812;28;20094;-86
2023/04/18 06:54:57;;;;;;;28.33;18.70;;;;;;;13.11;78.33;94715.78;5004254;28;20105;-85
2023/04/18 06:57:22;;;;;;;25.90;17.33;;;;;;;13.24;77.92;94714.19;5003710;28;20056;-84
2023/04/18 06:59:48;;;;;;;28.20;18.95;;;;;;;13.60;76.96;94754.91;5006074;28;20095;-83
2023/04/18 07:02:14;;;;;;;29.65;19.02;;;;;;;13.75;77.22;94770.53;5003516;28;20044;-84
2023/04/18 07:04:39;;;;;;;24.92;17.70;;;;;;;13.61;76.58;94756.47;5001743;28;20111;-87
2023/04/18 07:07:05;;;;;;;25.13;17.45;;;;;;;13.74;76.41;94770.81;5003052;28;20072;-86
2023/04/18 07:09:30;;;;;;;18.75;14.52;;;;;;;13.14;75.41;94657.41;5000576;28;20056;-84
2023/04/18 07:11:56;;;;;;;23.67;16.95;;;;;;;13.41;74.40;94704.47;4998807;28;20037;-85
2023/04/18 07:14:23;;;;;;;23.00;16.88;;;;;;;13.71;74.85;94726.94;5003248;28;20807;-85
2023/04/18 07:16:49;;;;;;;22.98;16.58;;;;;;;13.95;74.97;94763.94;4996667;28;20044;-85
2023/04/18 07:19:14;;;;;;;25.17;16.73;;;;;;;13.38;75.22;94680.31;5011032;28;20045;-86
2023/04/18 07:21:42;;;;;;;24.98;16.27;;;;;;;13.94;74.68;94738.38;5001538;28;20420;-86
2023/04/18 07:24:08;;;;;;;31.58;15.18;;;;;;;14.35;73.83;94775.44;4999942;28;20040;-84
2023/04/18 07:26:34;;;;;;;23.77;15.38;;;;;;;13.84;73.08;94709.28;5017200;28;20049;-86
2023/04/18 07:28:59;;;;;;;30.30;15.85;;;;;;;14.19;73.17;94753.69;5013621;28;20076;-84
2023/04/18 07:31:27;;;;;;;39.53;17.55;;;;;;;14.26;72.76;94753.28;4997862;28;20038;-85
2023/04/18 07:33:53;;;;;;;37.20;16.73;;;;;;;14.30;72.23;94740.91;4991048;28;20572;-85
2023/04/18 07:36:19;;;;;;;21.38;14.90;;;;;;;14.30;73.00;94732.91;4996670;28;20068;-85
2023/04/18 07:38:45;;;;;;;19.67;14.25;;;;;;;14.42;72.13;94749.13;5014165;28;20075;-86
2023/04/18 07:41:10;;;;;;;26.10;14.95;;;;;;;14.35;72.51;94761.31;5000839;28;20041;-83
2023/04/18 07:43:37;;;;;;;22.92;14.98;;;;;;;14.48;71.70;94763.16;5014226;28;20036;-85
2023/04/18 07:46:03;;;;;;;24.88;14.77;;;;;;;14.20;68.42;94706.50;5004707;28;20504;-84
2023/04/18 07:48:29;;;;;;;28.95;15.50;;;;;;;14.46;69.60;94768.00;5002060;28;20029;-84
2023/04/18 07:50:54;;;;;;;22.65;12.15;;;;;;;14.64;68.50;94778.44;4997592;28;20041;-85
2023/04/18 07:53:20;;;;;;;17.17;11.30;;;;;;;14.18;65.87;94730.81;5015122;28;20022;-85
2023/04/18 07:55:48;;;;;;;16.02;9.30;;;;;;;14.47;65.92;94766.91;5008882;28;20025;-88
2023/04/18 07:58:13;;;;;;;12.50;8.98;;;;;;;14.53;66.18;94771.00;5002060;28;20017;-87
2023/04/18 08:00:42;;;;;;;17.45;8.57;;;;;;;13.18;65.83;94591.03;5017215;28;20029;-86
2023/04/18 08:03:11;;;;;;;13.85;9.05;;;;;;;14.30;65.51;94739.03;4997617;28;20802;-86
2023/04/18 08:05:37;;;;;;;16.45;8.95;;;;;;;14.35;66.87;94731.97;4995485;28;20123;-86
2023/04/18 08:08:05;;;;;;;13.18;9.05;;;;;;;13.22;64.70;94607.19;4983695;28;20121;-86
2023/04/18 08:10:30;;;;;;;28.33;9.70;;;;;;;14.43;64.46;94800.63;5001201;28;20580;-87
2023/04/18 08:12:56;;;;;;;15.13;8.52;;;;;;;14.18;64.89;94730.03;5001970;28;20037;-86
2023/04/18 08:15:21;;;;;;;14.32;8.82;;;;;;;13.52;66.32;94612.53;4999306;28;20120;-85
2023/04/18 08:17:47;;;;;;;15.95;8.70;;;;;;;14.02;64.32;94680.84;4996138;28;20072;-86
2023/04/18 08:20:16;;;;;;;19.15;8.57;;;;;;;13.38;63.86;94579.88;5000461;28;20118;-85
2023/04/18 08:22:42;;;;;;;16.35;8.52;;;;;;;13.01;61.88;94519.03;4999064;28;20705;-85
2023/04/18 08:25:08;;;;;;;14.23;8.38;;;;;;;13.37;61.34;94561.53;5014237;28;20041;-86
2023/04/18 08:27:36;;;;;;;21.75;9.38;;;;;;;14.44;63.73;94703.47;4992414;28;20025;-85
2023/04/18 08:30:03;;;;;;;15.07;8.43;;;;;;;13.42;62.03;94546.22;5013330;28;20488;-85
2023/04/18 08:32:30;;;;;;;12.68;8.45;;;;;;;14.01;62.26;94601.97;4996941;28;20124;-85
2023/04/18 08:34:56;;;;;;;14.05;8.60;;;;;;;15.26;63.28;94772.16;5004360;28;20069;-84
2023/04/18 08:37:22;;;;;;;16.25;9.50;;;;;;;14.89;61.20;94709.41;5004157;28;20141;-85
2023/04/18 08:39:47;;;;;;;16.90;9.07;;;;;;;15.35;63.00;94759.59;5001357;28;20058;-86
2023/04/18 08:42:18;;;;;;;14.48;8.00;;;;;;;15.40;60.66;94741.53;4998896;28;20098;-84
2023/04/18 08:44:47;;;;;;;17.10;10.13;;;;;;;15.87;60.88;94786.38;4996179;28;20144;-86
2023/04/18 08:47:13;;;;;;;14.95;8.45;;;;;;;15.64;57.38;94748.34;5000034;28;21276;-89
2023/04/18 08:49:39;;;;;;;10.40;6.95;;;;;;;15.70;55.42;94765.78;5004344;28;20504;-85
2023/04/18 08:52:29;;;;;;;17.20;8.50;;;;;;;15.72;56.60;94766.22;5007188;28;20041;-85
2023/04/18 08:54:58;;;;;;;15.98;8.48;;;;;;;15.77;57.76;94723.31;5006497;28;20040;-87
2023/04/18 08:57:25;;;;;;;17.38;10.45;;;;;;;12.94;58.97;94297.78;4995780;28;20088;-89
2023/04/18 08:59:52;;;;;;;11.07;8.48;;;;;;;14.10;57.26;94448.94;4987792;28;20057;-85
2023/04/18 09:02:20;;;;;;;13.85;8.40;;;;;;;14.90;55.65;94596.97;4996705;28;20124;-87
2023/04/18 09:04:56;;;;;;;10.65;7.72;;;;;;;14.69;56.82;94593.34;5016207;28;20095;-87
2023/04/18 09:07:30;;;;;;;12.43;8.45;;;;;;;13.93;56.74;94440.91;5001761;28;20048;-89
2023/04/18 09:10:01;;;;;;;10.93;7.00;;;;;;;14.26;57.75;94500.72;5006967;28;20104;-89
2023/04/18 09:12:31;;;;;;;11.35;6.88;;;;;;;14.99;54.44;94563.06;5004963;28;20042;-89
2023/04/18 09:15:22;;;;;;;9.57;6.18;;;;;;;13.13;54.23;94283.13;5004154;28;20049;-88
2023/04/18 09:17:52;;;;;;;13.90;8.00;;;;;;;13.37;57.93;94309.31;5008883;28;20662;-89
2023/04/18 09:20:33;;;;;;;9.10;7.38;;;;;;;14.19;57.25;94424.91;5004770;28;20045;-89
2023/04/18 09:22:59;;;;;;;11.05;6.57;;;;;;;12.88;56.99;94272.41;5005350;28;20041;-88
2023/04/18 09:25:28;;;;;;;10.77;4.80;;;;;;;14.03;57.92;94461.16;5007171;28;20042;-89
2023/04/18 09:27:59;;;;;;;17.70;6.63;;;;;;;12.77;58.27;94230.13;5006903;28;20053;-87
2023/04/18 09:30:29;;;;;;;;;;;;;;;16.23;57.88;94786.00;5028061;28;20021;-87
2023/04/18 09:33:02;;;;;;;6.05;2.75;;;;;;;15.95;58.92;94785.56;5024076;28;19951;-86
2023/04/18 09:35:28;;;;;;;7.90;3.08;;;;;;;15.88;57.52;94775.34;5004238;28;20041;-86
2023/04/18 09:37:53;;;;;;;6.50;2.45;;;;;;;14.68;58.85;94570.44;4998991;28;20037;-84
2023/04/18 09:40:22;;;;;;;2.80;1.55;;;;;;;15.99;57.78;94784.63;5000630;28;20037;-84
2023/04/18 09:42:51;;;;;;;8.80;2.10;;;;;;;15.82;58.11;94790.78;5001523;28;20559;-85
2023/04/18 09:45:17;;;;;;;5.78;1.88;;;;;;;15.38;57.36;94741.06;4998242;28;20117;-85
2023/04/18 09:47:43;;;;;;;5.93;1.67;;;;;;;15.16;57.59;94729.72;4997011;28;20072;-89
2023/04/18 09:50:09;;;;;;;2.25;1.50;;;;;;;15.78;57.15;94784.50;5003257;28;20037;-85
2023/04/18 09:52:40;;;;;;;4.07;2.15;;;;;;;15.29;57.19;94780.34;4998782;28;21045;-84
2023/04/18 09:55:08;;;;;;;10.77;2.50;;;;;;;14.46;57.99;94699.41;4995890;28;20064;-85
2023/04/18 09:57:39;;;;;;;3.88;2.20;;;;;;;15.03;57.42;94748.22;5015997;28;20045;-85
2023/04/18 10:00:20;;;;;;;4.18;1.50;;;;;;;13.79;58.42;94546.84;4999274;28;20121;-86
2023/04/18 10:02:56;;;;;;;14.82;2.45;;;;;;;15.09;59.91;94758.78;5000644;28;20036;-86
2023/04/18 10:05:29;;;;;;;4.28;1.60;;;;;;;15.30;58.67;94778.47;5019727;28;20149;-85
2023/04/18 10:07:58;;;;;;;6.03;2.55;;;;;;;14.88;58.10;94675.78;5001053;28;20647;-85
2023/04/18 10:10:24;;;;;;;7.32;2.78;;;;;;;15.06;57.86;94666.72;5014799;28;20581;-85
2023/04/18 10:12:52;;;;;;;7.07;2.60;;;;;;;14.55;56.90;94657.53;4994687;28;20087;-85
2023/04/18 10:15:20;;;;;;;8.23;3.22;;;;;;;15.09;58.57;94770.25;5005036;28;20029;-82
2023/04/18 10:17:57;;;;;;;17.27;3.60;;;;;;;15.50;57.73;94766.38;5007140;28;20099;-83
2023/04/18 10:20:25;;;;;;;7.82;2.85;;;;;;;15.38;56.83;94765.13;4999445;28;20572;-84
2023/04/18 10:22:52;;;;;;;6.55;3.10;;;;;;;15.47;56.35;94762.44;4996245;28;20036;-84
2023/04/18 10:25:38;;;;;;;4.97;3.33;;;;;;;15.39;57.28;94772.03;5005179;28;20139;-84
2023/04/18 10:28:05;;;;;;;5.35;3.28;;;;;;;14.85;56.70;94685.25;4998910;28;20037;-83
2023/04/18 10:30:38;;;;;;;22.52;4.43;;;;;;;15.61;56.79;94759.66;4998203;28;20044;-84
2023/04/18 10:33:23;;;;;;;8.73;3.63;;;;;;;15.42;56.50;94765.25;4999061;28;20037;-84
2023/04/18 10:36:19;;;;;;;3.90;3.10;;;;;;;15.42;56.64;94760.69;5008866;28;20042;-83
2023/04/18 10:38:52;;;;;;;6.07;3.92;;;;;;;14.80;56.56;94656.00;5008152;28;20258;-84
2023/04/18 10:41:20;;;;;;;4.82;2.65;;;;;;;15.30;56.84;94762.44;5014820;28;20136;-84
2023/04/18 10:44:07;;;;;;;12.27;3.60;;;;;;;15.16;57.52;94759.13;5011489;28;20668;-83
2023/04/18 10:46:37;;;;;;;7.63;3.22;;;;;;;14.97;57.57;94756.69;5007051;28;20040;-82
2023/04/18 10:49:15;;;;;;;6.15;2.78;;;;;;;15.34;57.03;94758.03;5017188;28;20407;-83
2023/04/18 10:51:43;;;;;;;5.53;3.33;;;;;;;15.43;57.00;94721.41;4999981;28;20042;-83
2023/04/18 10:54:27;;;;;;;8.00;3.17;;;;;;;14.92;55.76;94666.88;5008572;28;20033;-83
2023/04/18 10:56:58;;;;;;;3.55;2.20;;;;;;;15.72;56.02;94760.88;4992893;28;20041;-83
2023/04/18 10:59:25;;;;;;;3.67;2.10;;;;;;;16.01;55.30;94755.69;4994724;28;20029;-83
2023/04/18 11:02:03;;;;;;;5.72;3.10;;;;;;;16.10;54.89;94759.13;4997557;28;20041;-84
2023/04/18 11:04:28;;;;;;;5.07;2.70;;;;;;;16.45;53.92;94756.38;5012924;28;20040;-83
2023/04/18 11:06:56;;;;;;;4.45;2.40;;;;;;;16.24;53.04;94608.34;5009543;28;20038;-82
2023/04/18 11:09:22;;;;;;;4.57;2.30;;;;;;;17.27;51.05;94731.72;4997411;28;20049;-83
2023/04/18 11:12:05;;;;;;;3.58;2.40;;;;;;;17.43;50.49;94689.03;4998571;28;20316;-82
2023/04/18 11:14:45;;;;;;;5.53;3.00;;;;;;;17.79;48.85;94706.41;4992400;28;20037;-84
2023/04/18 11:17:23;;;;;;;4.93;2.20;;;;;;;17.62;48.43;94653.72;4997994;28;20057;-84
2023/04/18 11:19:50;;;;;;;4.25;2.28;;;;;;;18.37;48.33;94724.91;5005794;28;20248;-84
2023/04/18 11:22:16;;;;;;;9.48;2.85;;;;;;;18.59;48.29;94717.59;4999862;28;20033;-85